createdAt,value
2019-06-27T00:02:25.079Z,102382.73
2019-06-27T00:05:29.272Z,102383.52
2019-06-27T00:08:33.538Z,102386.80
2019-06-27T00:11:37.595Z,102383.36
2019-06-27T00:14:41.567Z,102377.73
2019-06-27T00:17:45.563Z,102375.00
2019-06-27T00:20:49.431Z,102379.37
2019-06-27T00:23:53.390Z,102388.12
2019-06-27T00:26:57.769Z,102386.55
2019-06-27T00:30:01.910Z,102377.41
2019-06-27T00:33:05.805Z,102378.02
2019-06-27T00:36:09.614Z,102380.39
2019-06-27T00:39:13.473Z,102375.98
2019-06-27T00:42:17.268Z,102379.42
2019-06-27T00:45:21.214Z,102380.34
2019-06-27T00:48:25.311Z,102368.64
2019-06-27T00:51:29.305Z,102369.92
2019-06-27T00:54:33.900Z,102371.82
2019-06-27T00:57:38.349Z,102371.04
2019-06-27T01:00:42.235Z,102378.80
2019-06-27T01:03:46.135Z,102378.73
2019-06-27T01:06:49.950Z,102377.79
2019-06-27T01:09:53.824Z,102375.34
2019-06-27T01:12:57.821Z,102379.80
2019-06-27T01:16:01.674Z,102375.34
2019-06-27T01:19:05.685Z,102372.11
2019-06-27T01:22:09.677Z,102380.05
2019-06-27T01:25:13.749Z,102387.44
2019-06-27T01:28:18.411Z,102381.90
2019-06-27T01:31:22.991Z,102377.40
2019-06-27T01:34:26.846Z,102383.49
2019-06-27T01:37:30.729Z,102377.86
2019-06-27T01:40:35.024Z,102381.18
2019-06-27T01:43:39.143Z,102378.64
2019-06-27T01:46:42.973Z,102384.83
2019-06-27T01:49:47.286Z,102377.94
2019-06-27T01:52:51.118Z,102376.25
2019-06-27T01:55:55.017Z,102375.34
2019-06-27T01:58:58.906Z,102375.64
2019-06-27T02:02:02.897Z,102377.88
2019-06-27T02:05:07.718Z,102373.94
2019-06-27T02:08:11.690Z,102372.51
2019-06-27T02:11:15.706Z,102373.64
2019-06-27T02:14:19.572Z,102377.38
2019-06-27T02:17:23.402Z,102372.31
2019-06-27T02:20:27.574Z,102371.33
2019-06-27T02:23:31.617Z,102375.83
2019-06-27T02:26:35.486Z,102376.52
2019-06-27T02:29:39.345Z,102369.66
2019-06-27T02:32:43.238Z,102373.22
2019-06-27T02:35:47.105Z,102379.65
2019-06-27T02:38:50.910Z,102373.44
2019-06-27T02:41:54.764Z,102366.95
2019-06-27T02:44:58.589Z,102371.30
2019-06-27T02:48:02.523Z,102367.37
2019-06-27T02:51:06.570Z,102363.57
2019-06-27T02:54:10.474Z,102369.62
2019-06-27T02:57:14.383Z,102371.53
2019-06-27T03:00:18.448Z,102358.69
2019-06-27T03:03:22.293Z,102359.85
2019-06-27T03:06:26.191Z,102359.09
2019-06-27T03:09:30.493Z,102374.36
2019-06-27T03:12:34.386Z,102372.87
2019-06-27T03:15:38.226Z,102363.57
2019-06-27T03:18:42.598Z,102355.23
2019-06-27T03:21:46.722Z,102355.34
2019-06-27T03:24:50.538Z,102361.06
2019-06-27T03:27:54.456Z,102366.05
2019-06-27T03:30:58.413Z,102364.92
2019-06-27T03:34:02.246Z,102359.02
2019-06-27T03:37:06.206Z,102356.42
2019-06-27T03:40:10.455Z,102365.12
2019-06-27T03:43:16.596Z,102365.83
2019-06-27T03:46:20.501Z,102361.97
2019-06-27T03:49:24.499Z,102363.38
2019-06-27T03:52:28.356Z,102361.94
2019-06-27T03:55:35.457Z,102358.58
2019-06-27T03:58:39.494Z,102369.31
2019-06-27T04:01:43.308Z,102370.48
2019-06-27T04:04:47.314Z,102361.48
2019-06-27T04:07:51.240Z,102368.13
2019-06-27T04:10:55.341Z,102365.27
2019-06-27T04:13:59.339Z,102364.96
2019-06-27T04:17:03.564Z,102373.90
2019-06-27T04:20:07.726Z,102368.26
2019-06-27T04:23:12.195Z,102368.16
2019-06-27T04:26:16.197Z,102367.50
2019-06-27T04:29:32.788Z,102363.73
2019-06-27T04:32:25.952Z,102367.16
2019-06-27T04:35:29.770Z,102362.22
2019-06-27T04:38:33.860Z,102358.12
2019-06-27T04:41:37.661Z,102367.70
2019-06-27T04:44:41.553Z,102362.55
2019-06-27T04:47:45.603Z,102362.81
2019-06-27T04:50:49.768Z,102364.48
2019-06-27T04:53:53.577Z,102363.44
2019-06-27T04:56:57.414Z,102359.21
2019-06-27T05:00:01.264Z,102354.35
2019-06-27T05:03:05.232Z,102361.89
2019-06-27T05:06:09.017Z,102355.02
2019-06-27T05:09:12.949Z,102353.34
2019-06-27T05:12:16.822Z,102358.13
2019-06-27T05:15:20.836Z,102353.53
2019-06-27T05:18:25.743Z,102368.01
2019-06-27T05:21:29.570Z,102359.13
2019-06-27T05:24:33.447Z,102370.98
2019-06-27T05:27:37.339Z,102358.84
2019-06-27T05:30:41.236Z,102369.41
2019-06-27T05:33:45.139Z,102374.90
2019-06-27T05:36:49.125Z,102369.49
2019-06-27T05:39:53.009Z,102371.60
2019-06-27T05:42:56.952Z,102369.16
2019-06-27T05:46:00.829Z,102371.76
2019-06-27T05:49:04.665Z,102371.69
2019-06-27T05:52:08.668Z,102381.78
2019-06-27T05:55:12.683Z,102372.58
2019-06-27T05:58:16.593Z,102374.73
2019-06-27T06:01:20.486Z,102376.69
2019-06-27T06:04:25.310Z,102372.77
2019-06-27T06:07:29.260Z,102375.08
2019-06-27T06:10:33.051Z,102381.30
2019-06-27T06:13:36.906Z,102379.74
2019-06-27T06:16:40.754Z,102367.80
2019-06-27T06:19:44.578Z,102371.20
2019-06-27T06:22:48.500Z,102374.12
2019-06-27T06:25:52.537Z,102377.09
2019-06-27T06:28:56.363Z,102366.95
2019-06-27T06:32:00.172Z,102375.64
2019-06-27T06:35:04.258Z,102375.56
2019-06-27T06:38:08.210Z,102373.95
2019-06-27T06:41:12.163Z,102378.53
2019-06-27T06:44:16.037Z,102387.80
2019-06-27T06:47:19.867Z,102383.42
2019-06-27T06:50:23.788Z,102386.45
2019-06-27T06:53:27.679Z,102388.52
2019-06-27T06:56:31.593Z,102392.37
2019-06-27T06:59:35.437Z,102389.91
2019-06-27T07:02:39.352Z,102398.72
2019-06-27T07:05:43.226Z,102401.55
2019-06-27T07:08:47.123Z,102406.33
2019-06-27T07:11:50.947Z,102400.20
2019-06-27T07:14:54.845Z,102404.14
2019-06-27T07:17:58.791Z,102402.64
2019-06-27T07:21:02.666Z,102411.27
2019-06-27T07:24:06.621Z,102412.03
2019-06-27T07:27:10.532Z,102411.93
2019-06-27T07:30:14.735Z,102410.22
2019-06-27T07:33:18.666Z,102397.76
2019-06-27T07:36:22.498Z,102398.63
2019-06-27T07:39:26.431Z,102399.34
2019-06-27T07:42:30.331Z,102406.73
2019-06-27T07:45:34.153Z,102410.92
2019-06-27T07:48:38.015Z,102403.21
2019-06-27T07:51:41.888Z,102409.72
2019-06-27T07:54:45.824Z,102409.94
2019-06-27T07:57:49.660Z,102407.48
2019-06-27T08:00:53.478Z,102416.00
2019-06-27T08:03:57.331Z,102420.77
2019-06-27T08:07:01.149Z,102419.10
2019-06-27T08:10:05.185Z,102424.42
2019-06-27T08:13:09.159Z,102426.98
2019-06-27T08:16:13.060Z,102426.48
2019-06-27T08:19:16.860Z,102430.55
2019-06-27T08:22:20.708Z,102441.09
2019-06-27T08:25:24.682Z,102429.67
2019-06-27T08:28:28.607Z,102424.56
2019-06-27T08:31:32.490Z,102442.48
2019-06-27T08:34:36.420Z,102436.37
2019-06-27T08:37:40.307Z,102440.58
2019-06-27T08:40:44.266Z,102438.80
2019-06-27T08:43:48.118Z,102443.58
2019-06-27T08:46:51.945Z,102442.48
2019-06-27T08:49:55.915Z,102444.09
2019-06-27T08:53:01.424Z,102442.48
2019-06-27T08:56:05.881Z,102454.45
2019-06-27T08:59:09.776Z,102443.38
2019-06-27T09:02:13.644Z,102452.47
2019-06-27T09:05:17.607Z,102440.54
2019-06-27T09:08:21.513Z,102445.09
2019-06-27T09:11:25.480Z,102438.27
2019-06-27T09:14:29.427Z,102440.33
2019-06-27T09:17:33.430Z,102447.14
2019-06-27T09:20:37.430Z,102450.73
2019-06-27T09:23:41.442Z,102445.50
2019-06-27T09:26:45.448Z,102435.55
2019-06-27T09:29:49.236Z,102444.06
2019-06-27T09:32:53.060Z,102438.27
2019-06-27T09:35:57.014Z,102437.64
2019-06-27T09:39:00.918Z,102439.84
2019-06-27T09:42:04.883Z,102448.36
2019-06-27T09:45:10.460Z,102444.74
2019-06-27T09:48:14.463Z,102451.67
2019-06-27T09:51:18.439Z,102450.73
2019-06-27T09:54:22.409Z,102460.49
2019-06-27T09:57:26.379Z,102454.13
2019-06-27T10:00:30.328Z,102460.48
2019-06-27T10:03:34.236Z,102458.44
2019-06-27T10:06:38.774Z,102453.02
2019-06-27T10:09:42.662Z,102457.34
2019-06-27T10:12:46.552Z,102455.91
2019-06-27T10:15:50.488Z,102454.17
2019-06-27T10:18:54.335Z,102450.09
2019-06-27T10:21:58.270Z,102453.31
2019-06-27T10:25:02.276Z,102456.81
2019-06-27T10:28:06.417Z,102452.52
2019-06-27T10:31:10.246Z,102462.11
2019-06-27T10:34:14.247Z,102463.03
2019-06-27T10:37:18.060Z,102458.39
2019-06-27T10:40:22.119Z,102459.39
2019-06-27T10:43:26.031Z,102459.11
2019-06-27T10:46:29.963Z,102454.80
2019-06-27T10:49:33.868Z,102460.70
2019-06-27T10:52:37.841Z,102459.19
2019-06-27T10:55:41.933Z,102456.29
2019-06-27T10:58:45.871Z,102453.39
2019-06-27T11:01:49.815Z,102446.35
2019-06-27T11:04:53.673Z,102443.84
2019-06-27T11:07:57.653Z,102442.64
2019-06-27T11:11:01.539Z,102444.77
2019-06-27T11:14:05.518Z,102445.11
2019-06-27T11:17:09.403Z,102444.09
2019-06-27T11:20:15.260Z,102450.39
2019-06-27T11:23:19.474Z,102449.67
2019-06-27T11:26:23.310Z,102444.67
2019-06-27T11:29:27.269Z,102449.33
2019-06-27T11:32:31.106Z,102449.36
2019-06-27T11:35:35.101Z,102439.51
2019-06-27T11:38:39.051Z,102440.68
2019-06-27T11:41:42.965Z,102444.88
2019-06-27T11:44:46.965Z,102444.13
2019-06-27T11:47:50.926Z,102445.91
2019-06-27T11:50:54.921Z,102445.41
2019-06-27T11:53:58.885Z,102438.75
2019-06-27T11:57:02.755Z,102438.64
2019-06-27T12:00:07.504Z,102447.09
2019-06-27T12:03:11.391Z,102442.41
2019-06-27T12:06:15.359Z,102444.58
2019-06-27T12:09:19.323Z,102443.64
2019-06-27T12:12:23.401Z,102443.20
2019-06-27T12:15:27.327Z,102446.84
2019-06-27T12:18:31.392Z,102449.61
2019-06-27T12:21:35.857Z,102447.60
2019-06-27T12:24:39.780Z,102448.30
2019-06-27T12:27:44.176Z,102448.88
2019-06-27T12:30:48.056Z,102448.67
2019-06-27T12:34:05.574Z,102445.30
2019-06-27T12:36:58.107Z,102447.66
2019-06-27T12:40:02.050Z,102446.67
2019-06-27T12:43:06.080Z,102449.44
2019-06-27T12:46:10.268Z,102441.64
2019-06-27T12:49:14.433Z,102440.09
2019-06-27T12:52:18.490Z,102436.74
2019-06-27T12:55:22.701Z,102423.16
2019-06-27T12:58:26.603Z,102424.58
2019-06-27T13:01:30.979Z,102416.73
2019-06-27T13:04:34.952Z,102413.05
2019-06-27T13:07:39.071Z,102416.26
2019-06-27T13:10:43.245Z,102421.75
2019-06-27T13:13:47.537Z,102426.45
2019-06-27T13:16:51.441Z,102430.09
2019-06-27T13:19:55.779Z,102426.34
2019-06-27T13:22:59.847Z,102428.11
2019-06-27T13:26:03.764Z,102422.23
2019-06-27T13:29:07.568Z,102418.80
2019-06-27T13:32:11.549Z,102425.67
2019-06-27T13:35:15.521Z,102421.83
2019-06-27T13:38:19.333Z,102419.73
2019-06-27T13:41:23.651Z,102420.92
2019-06-27T13:44:27.937Z,102421.78
2019-06-27T13:47:31.779Z,102422.02
2019-06-27T13:50:36.393Z,102421.45
2019-06-27T13:53:40.289Z,102421.19
2019-06-27T13:56:44.172Z,102430.50
2019-06-27T13:59:48.169Z,102416.63
2019-06-27T14:02:52.545Z,102408.15
2019-06-27T14:05:56.531Z,102413.77
2019-06-27T14:09:00.614Z,102409.37
2019-06-27T14:12:04.656Z,102404.56
2019-06-27T14:15:09.072Z,102405.66
2019-06-27T14:18:13.026Z,102402.00
2019-06-27T14:21:17.183Z,102392.63
2019-06-27T14:24:21.910Z,102394.28
2019-06-27T14:27:26.016Z,102397.56
2019-06-27T14:30:31.206Z,102396.98
2019-06-27T14:33:35.423Z,102395.50
2019-06-27T14:36:39.631Z,102395.13
2019-06-27T14:39:43.950Z,102400.44
2019-06-27T14:42:48.073Z,102389.57
2019-06-27T14:45:51.960Z,102386.41
2019-06-27T14:48:56.921Z,102383.63
2019-06-27T14:52:01.307Z,102388.08
2019-06-27T14:55:05.680Z,102391.70
2019-06-27T14:58:09.593Z,102398.31
2019-06-27T15:01:13.655Z,102383.20
2019-06-27T15:04:17.549Z,102387.15
2019-06-27T15:07:21.651Z,102385.05
2019-06-27T15:10:25.726Z,102379.99
2019-06-27T15:13:29.922Z,102386.14
2019-06-27T15:16:34.233Z,102394.85
2019-06-27T15:19:38.138Z,102385.14
2019-06-27T15:22:42.038Z,102379.94
2019-06-27T15:25:46.025Z,102386.45
2019-06-27T15:28:49.921Z,102387.55
2019-06-27T15:31:53.895Z,102387.54
2019-06-27T15:34:58.511Z,102390.91
2019-06-27T15:38:02.336Z,102392.34
2019-06-27T15:41:06.173Z,102393.21
2019-06-27T15:44:10.133Z,102392.55
2019-06-27T15:47:13.972Z,102399.56
2019-06-27T15:50:18.059Z,102390.05
2019-06-27T15:53:22.347Z,102388.16
2019-06-27T15:56:26.340Z,102395.91
2019-06-27T15:59:30.322Z,102390.40
2019-06-27T16:02:34.203Z,102387.00
2019-06-27T16:05:38.331Z,102392.60
2019-06-27T16:08:42.692Z,102393.96
2019-06-27T16:11:46.663Z,102386.59
2019-06-27T16:14:50.546Z,102390.20
2019-06-27T16:17:54.753Z,102392.81
2019-06-27T16:20:58.679Z,102394.28
2019-06-27T16:24:02.646Z,102389.06
2019-06-27T16:27:06.636Z,102387.36
2019-06-27T16:30:10.724Z,102387.49
2019-06-27T16:33:14.727Z,102380.02
2019-06-27T16:36:25.432Z,102396.08
2019-06-27T16:39:24.327Z,102391.67
2019-06-27T16:42:28.424Z,102393.14
2019-06-27T16:45:32.309Z,102389.45
2019-06-27T16:48:36.344Z,102392.34
2019-06-27T16:51:40.255Z,102394.17
2019-06-27T16:54:44.174Z,102396.98
2019-06-27T16:57:48.348Z,102388.94
2019-06-27T17:00:52.269Z,102398.02
2019-06-27T17:03:56.244Z,102396.75
2019-06-27T17:07:00.336Z,102396.59
2019-06-27T17:10:04.624Z,102384.34
2019-06-27T17:13:08.508Z,102399.86
2019-06-27T17:16:12.793Z,102389.31
2019-06-27T17:19:16.765Z,102391.70
2019-06-27T17:22:20.667Z,102393.91
2019-06-27T17:25:24.743Z,102389.80
2019-06-27T17:28:28.728Z,102383.28
2019-06-27T17:31:32.748Z,102388.85
2019-06-27T17:34:36.653Z,102387.58
2019-06-27T17:37:40.573Z,102386.44
2019-06-27T17:40:44.465Z,102385.62
2019-06-27T17:43:48.359Z,102382.83
2019-06-27T17:46:52.322Z,102382.03
2019-06-27T17:49:56.185Z,102385.52
2019-06-27T17:53:00.084Z,102378.45
2019-06-27T17:56:04.049Z,102392.08
2019-06-27T17:59:08.031Z,102384.12
2019-06-27T18:02:11.949Z,102390.77
2019-06-27T18:05:18.342Z,102391.47
2019-06-27T18:08:21.470Z,102391.84
2019-06-27T18:11:25.491Z,102388.98
2019-06-27T18:14:29.406Z,102384.45
2019-06-27T18:17:34.224Z,102392.70
2019-06-27T18:20:38.664Z,102385.72
2019-06-27T18:23:42.689Z,102384.39
2019-06-27T18:26:46.605Z,102381.05
2019-06-27T18:29:50.641Z,102372.37
2019-06-27T18:32:54.603Z,102370.14
2019-06-27T18:35:58.602Z,102377.44
2019-06-27T18:39:02.496Z,102375.08
2019-06-27T18:42:06.414Z,102384.88
2019-06-27T18:45:10.990Z,102381.97
2019-06-27T18:48:14.912Z,102387.62
2019-06-27T18:51:18.791Z,102397.13
2019-06-27T18:54:22.668Z,102398.63
2019-06-27T18:57:26.547Z,102402.22
2019-06-27T19:00:30.442Z,102397.34
2019-06-27T19:03:34.312Z,102404.04
2019-06-27T19:06:38.368Z,102407.60
2019-06-27T19:09:42.298Z,102398.57
2019-06-27T19:12:46.235Z,102406.48
2019-06-27T19:15:50.114Z,102407.53
2019-06-27T19:18:57.181Z,102407.24
2019-06-27T19:22:23.214Z,102409.87
2019-06-27T19:25:31.411Z,102406.86
2019-06-27T19:28:35.505Z,102416.87
2019-06-27T19:31:39.428Z,102413.69
2019-06-27T19:34:43.310Z,102421.59
2019-06-27T19:38:01.001Z,102417.66
2019-06-27T19:40:52.865Z,102415.41
2019-06-27T19:43:57.143Z,102419.17
2019-06-27T19:47:01.231Z,102425.97
2019-06-27T19:50:05.592Z,102428.47
2019-06-27T19:53:09.553Z,102426.11
2019-06-27T19:56:13.546Z,102428.05
2019-06-27T19:59:17.530Z,102434.23
2019-06-27T20:02:21.505Z,102433.13
2019-06-27T20:05:25.507Z,102438.20
2019-06-27T20:08:29.564Z,102436.27
2019-06-27T20:11:33.631Z,102421.38
2019-06-27T20:14:37.525Z,102431.73
2019-06-27T20:17:41.451Z,102431.56
2019-06-27T20:20:45.271Z,102436.16
2019-06-27T20:23:49.223Z,102436.78
2019-06-27T20:26:53.142Z,102442.45
2019-06-27T20:29:57.966Z,102440.73
2019-06-27T20:33:01.917Z,102446.52
2019-06-27T20:36:05.947Z,102451.89
2019-06-27T20:39:10.149Z,102451.55
2019-06-27T20:42:14.051Z,102445.20
2019-06-27T20:45:18.140Z,102444.58
2019-06-27T20:48:22.082Z,102445.59
2019-06-27T20:51:26.121Z,102447.39
2019-06-27T20:54:30.045Z,102444.02
2019-06-27T20:57:33.968Z,102443.41
2019-06-27T21:00:37.904Z,102441.44
2019-06-27T21:03:41.880Z,102443.34
2019-06-27T21:06:45.885Z,102451.13
2019-06-27T21:09:49.824Z,102455.28
2019-06-27T21:12:53.820Z,102455.22
2019-06-27T21:15:57.739Z,102454.77
2019-06-27T21:19:01.718Z,102452.63
2019-06-27T21:22:05.625Z,102461.68
2019-06-27T21:25:10.020Z,102452.89
2019-06-27T21:28:14.449Z,102457.73
2019-06-27T21:31:18.751Z,102456.19
2019-06-27T21:34:22.891Z,102459.66
2019-06-27T21:37:26.897Z,102450.63
2019-06-27T21:40:30.910Z,102454.16
2019-06-27T21:43:35.001Z,102457.05
2019-06-27T21:46:38.917Z,102450.23
2019-06-27T21:49:42.926Z,102442.59
2019-06-27T21:52:46.882Z,102451.89
2019-06-27T21:55:50.898Z,102446.47
2019-06-27T21:58:54.811Z,102452.03
2019-06-27T22:01:59.087Z,102441.97
2019-06-27T22:05:03.131Z,102444.16
2019-06-27T22:08:07.150Z,102441.01
2019-06-27T22:11:11.220Z,102442.11
2019-06-27T22:14:15.186Z,102437.97
2019-06-27T22:17:19.204Z,102437.20
2019-06-27T22:20:23.305Z,102438.72
2019-06-27T22:23:27.303Z,102433.31
2019-06-27T22:26:31.247Z,102439.66
2019-06-27T22:29:35.232Z,102440.99
2019-06-27T22:32:39.449Z,102442.39
2019-06-27T22:35:43.432Z,102444.78
2019-06-27T22:39:05.471Z,102441.20
2019-06-27T22:42:27.161Z,102441.27
2019-06-27T22:45:49.306Z,102425.15
2019-06-27T22:48:52.422Z,102428.11
2019-06-27T22:52:14.372Z,102422.77
2019-06-27T22:55:21.976Z,102426.60
2019-06-27T22:58:26.235Z,102427.38
2019-06-27T23:01:30.601Z,102421.86
2019-06-27T23:04:34.816Z,102430.42
2019-06-27T23:07:38.987Z,102424.77
2019-06-27T23:10:42.911Z,102428.42
2019-06-27T23:13:46.971Z,102429.47
2019-06-27T23:16:51.724Z,102428.74
2019-06-27T23:19:55.854Z,102438.89
2019-06-27T23:22:59.707Z,102441.19
2019-06-27T23:26:03.635Z,102438.27
2019-06-27T23:29:07.767Z,102439.48
2019-06-27T23:32:11.734Z,102440.52
2019-06-27T23:35:15.786Z,102436.51
2019-06-27T23:38:19.822Z,102437.44
2019-06-27T23:41:24.041Z,102440.53
2019-06-27T23:44:28.019Z,102434.83
2019-06-27T23:47:31.964Z,102434.71
2019-06-27T23:50:36.363Z,102437.48
2019-06-27T23:53:40.376Z,102433.61
2019-06-27T23:56:44.497Z,102430.20
2019-06-27T23:59:48.371Z,102428.86
